South Renovo, Pennsylvania
Current Conditions -  °F | °C
As of 5:35 PM on Friday 24 Oct 2014 (Local Time) from KN38 Reporting Station
Clear Clear  
Wind Chill: 55°   Ceiling: Unl
Heat Index: 55°   Visibility: 10mi
Dew Point: 30°   Wind: 9mph
Humidity: 38%   Direction: 310°NW
Pressure: 29.92"   Gusts: 15mph
Location:  41.3916°N, 77.7796°W
Report Text: KN38 242135Z AUTO 31008G13KT 10SM CLR 13/M01 A2992 RMK AO2
Loading
Personal Weather Stations






























Interactive Weather Map
Tropical Storm Tracking
New forecast layout! Learn more

10-Day Weather Forecast

Advertisements
Track Severe Weather on mobile